createdAt,value
2023-02-10T00:00:58.082Z,100.00
2023-02-10T00:02:30.657Z,100.00
2023-02-10T00:04:05.491Z,100.00
2023-02-10T00:05:37.812Z,100.00
2023-02-10T00:07:10.025Z,100.00
2023-02-10T00:08:42.246Z,100.00
2023-02-10T00:10:14.574Z,100.00
2023-02-10T00:12:05.325Z,100.00
2023-02-10T00:13:38.354Z,100.00
2023-02-10T00:15:11.538Z,100.00
2023-02-10T00:16:43.543Z,100.00
2023-02-10T00:18:15.675Z,100.00
2023-02-10T00:19:47.838Z,100.00
2023-02-10T00:21:19.936Z,100.00
2023-02-10T00:22:52.109Z,100.00
2023-02-10T00:24:24.919Z,100.00
2023-02-10T00:25:57.150Z,100.00
2023-02-10T00:27:29.308Z,100.00
2023-02-10T00:29:01.655Z,100.00
2023-02-10T00:30:34.193Z,100.00
2023-02-10T00:32:06.415Z,100.00
2023-02-10T00:33:39.053Z,100.00
2023-02-10T00:35:13.638Z,100.00
2023-02-10T00:36:46.212Z,100.00
2023-02-10T00:38:19.269Z,100.00
2023-02-10T00:39:52.480Z,100.00
2023-02-10T00:41:25.797Z,100.00
2023-02-10T00:43:02.528Z,100.00
2023-02-10T00:44:34.822Z,100.00
2023-02-10T00:46:15.595Z,100.00
2023-02-10T00:47:50.735Z,100.00
2023-02-10T00:49:22.885Z,100.00
2023-02-10T00:50:55.763Z,100.00
2023-02-10T00:52:27.924Z,100.00
2023-02-10T00:54:00.181Z,100.00
2023-02-10T00:55:32.292Z,100.00
2023-02-10T00:57:04.609Z,100.00
2023-02-10T00:58:37.116Z,100.00
2023-02-10T01:00:09.924Z,100.00
2023-02-10T01:01:41.916Z,100.00
2023-02-10T01:03:14.281Z,100.00
2023-02-10T01:04:46.878Z,100.00
2023-02-10T01:06:19.143Z,100.00
2023-02-10T01:07:53.509Z,100.00
2023-02-10T01:09:25.847Z,100.00
2023-02-10T01:11:09.551Z,100.00
2023-02-10T01:12:41.987Z,100.00
2023-02-10T01:14:16.807Z,100.00
2023-02-10T01:15:49.244Z,100.00
2023-02-10T01:17:22.151Z,100.00
2023-02-10T01:18:55.232Z,100.00
2023-02-10T01:20:27.571Z,100.00
2023-02-10T01:21:59.688Z,100.00
2023-02-10T01:23:31.720Z,100.00
2023-02-10T01:25:05.532Z,100.00
2023-02-10T01:26:37.917Z,100.00
2023-02-10T01:28:10.436Z,100.00
2023-02-10T01:29:43.206Z,100.00
2023-02-10T01:31:17.865Z,100.00
2023-02-10T01:32:54.302Z,100.00
2023-02-10T01:34:27.822Z,100.00
2023-02-10T01:35:59.934Z,100.00
2023-02-10T01:37:32.025Z,100.00
2023-02-10T01:39:04.385Z,100.00
2023-02-10T01:40:37.318Z,100.00
2023-02-10T01:42:16.110Z,100.00
2023-02-10T01:43:59.456Z,100.00
2023-02-10T01:45:39.537Z,100.00
2023-02-10T01:47:12.119Z,100.00
2023-02-10T01:48:46.695Z,100.00
2023-02-10T01:50:22.145Z,100.00
2023-02-10T01:52:00.188Z,100.00
2023-02-10T01:53:32.496Z,100.00
2023-02-10T01:55:13.107Z,100.00
2023-02-10T01:56:45.279Z,100.00
2023-02-10T01:58:22.352Z,100.00
2023-02-10T01:59:54.465Z,100.00
2023-02-10T02:01:26.698Z,100.00
2023-02-10T02:03:01.498Z,100.00
2023-02-10T02:04:53.698Z,100.00
2023-02-10T02:06:25.777Z,100.00
2023-02-10T02:08:33.214Z,100.00
2023-02-10T02:10:07.075Z,100.00
2023-02-10T02:11:54.067Z,100.00
2023-02-10T02:13:29.157Z,100.00
2023-02-10T02:15:47.767Z,100.00
2023-02-10T02:17:39.880Z,100.00
2023-02-10T02:19:11.908Z,100.00
2023-02-10T02:20:45.313Z,100.00
2023-02-10T02:22:28.261Z,100.00
2023-02-10T02:24:19.089Z,100.00
2023-02-10T02:25:53.701Z,100.00
2023-02-10T02:27:25.687Z,100.00
2023-02-10T02:29:15.866Z,100.00
2023-02-10T02:31:08.815Z,100.00
2023-02-10T02:33:00.411Z,100.00
2023-02-10T02:34:39.447Z,100.00
2023-02-10T02:36:15.334Z,100.00
2023-02-10T02:37:48.788Z,100.00
2023-02-10T02:39:21.075Z,100.00
2023-02-10T02:40:53.400Z,100.00
2023-02-10T02:42:26.277Z,100.00
2023-02-10T02:43:58.437Z,100.00
2023-02-10T02:45:34.113Z,100.00
2023-02-10T02:47:14.821Z,100.00
2023-02-10T02:49:04.938Z,100.00
2023-02-10T02:51:21.000Z,100.00
2023-02-10T02:53:34.685Z,100.00
2023-02-10T02:55:17.059Z,100.00
2023-02-10T02:57:11.043Z,100.00
2023-02-10T02:58:51.852Z,100.00
2023-02-10T03:00:52.260Z,100.00
2023-02-10T03:02:24.504Z,100.00
2023-02-10T03:03:58.425Z,100.00
2023-02-10T03:05:33.004Z,100.00
2023-02-10T03:07:05.955Z,100.00
2023-02-10T03:08:40.301Z,100.00
2023-02-10T03:10:12.482Z,100.00
2023-02-10T03:11:44.539Z,100.00
2023-02-10T03:13:16.669Z,100.00
2023-02-10T03:14:48.779Z,100.00
2023-02-10T03:16:20.937Z,100.00
2023-02-10T03:17:53.126Z,100.00
2023-02-10T03:19:25.659Z,100.00
2023-02-10T03:20:57.774Z,100.00
2023-02-10T03:22:29.987Z,100.00
2023-02-10T03:24:02.182Z,100.00
2023-02-10T03:25:34.396Z,100.00
2023-02-10T03:27:07.112Z,100.00
2023-02-10T03:28:39.223Z,100.00
2023-02-10T03:30:11.602Z,100.00
2023-02-10T03:31:43.963Z,100.00
2023-02-10T03:33:16.574Z,100.00
2023-02-10T03:34:48.848Z,100.00
2023-02-10T03:36:20.948Z,100.00
2023-02-10T03:37:53.317Z,100.00
2023-02-10T03:39:25.478Z,100.00
2023-02-10T03:40:57.612Z,100.00
2023-02-10T03:42:29.747Z,100.00
2023-02-10T03:44:01.910Z,100.00
2023-02-10T03:45:34.362Z,100.00
2023-02-10T03:47:09.523Z,100.00
2023-02-10T03:48:41.661Z,100.00
2023-02-10T03:50:13.868Z,100.00
2023-02-10T03:51:48.688Z,100.00
2023-02-10T03:53:20.729Z,100.00
2023-02-10T03:54:52.847Z,100.00
2023-02-10T03:56:24.994Z,100.00
2023-02-10T03:57:57.288Z,100.00
2023-02-10T03:59:29.403Z,100.00
2023-02-10T04:01:01.745Z,100.00
2023-02-10T04:02:33.925Z,100.00
2023-02-10T04:04:06.183Z,100.00
2023-02-10T04:05:38.334Z,100.00
2023-02-10T04:07:10.603Z,100.00
2023-02-10T04:08:42.964Z,100.00
2023-02-10T04:10:15.326Z,100.00
2023-02-10T04:11:47.480Z,100.00
2023-02-10T04:13:21.068Z,100.00
2023-02-10T04:14:56.212Z,100.00
2023-02-10T04:16:29.214Z,100.00
2023-02-10T04:18:01.303Z,100.00
2023-02-10T04:19:33.922Z,100.00
2023-02-10T04:21:08.853Z,100.00
2023-02-10T04:22:42.755Z,100.00
2023-02-10T04:24:16.447Z,100.00
2023-02-10T04:25:49.003Z,100.00
2023-02-10T04:27:21.324Z,100.00
2023-02-10T04:28:53.561Z,100.00
2023-02-10T04:30:25.972Z,100.00
2023-02-10T04:31:58.305Z,100.00
2023-02-10T04:33:31.299Z,100.00
2023-02-10T04:35:03.651Z,100.00
2023-02-10T04:36:35.797Z,100.00
2023-02-10T04:38:08.010Z,100.00
2023-02-10T04:39:45.743Z,100.00
2023-02-10T04:41:22.006Z,100.00
2023-02-10T04:42:57.347Z,100.00
2023-02-10T04:44:29.730Z,100.00
2023-02-10T04:46:05.850Z,100.00
2023-02-10T04:47:38.615Z,100.00
2023-02-10T04:49:11.017Z,100.00
2023-02-10T04:50:43.996Z,100.00
2023-02-10T04:52:21.328Z,100.00
2023-02-10T04:53:55.862Z,100.00
2023-02-10T04:55:28.166Z,100.00
2023-02-10T04:57:00.436Z,100.00
2023-02-10T04:58:35.734Z,100.00
2023-02-10T05:00:12.022Z,100.00
2023-02-10T05:01:44.345Z,100.00
2023-02-10T05:03:17.034Z,100.00
2023-02-10T05:04:50.501Z,100.00
2023-02-10T05:06:22.773Z,100.00
2023-02-10T05:08:00.180Z,100.00
2023-02-10T05:09:32.482Z,100.00
2023-02-10T05:11:04.765Z,100.00
2023-02-10T05:12:37.190Z,100.00
2023-02-10T05:14:09.399Z,100.00
2023-02-10T05:15:41.426Z,100.00
2023-02-10T05:17:13.715Z,100.00
2023-02-10T05:18:45.975Z,100.00
2023-02-10T05:20:18.291Z,100.00
2023-02-10T05:21:50.472Z,100.00
2023-02-10T05:23:22.626Z,100.00
2023-02-10T05:24:55.551Z,100.00
2023-02-10T05:26:27.606Z,100.00
2023-02-10T05:27:59.770Z,100.00
2023-02-10T05:29:31.933Z,100.00
2023-02-10T05:31:07.916Z,100.00
2023-02-10T05:32:41.436Z,100.00
2023-02-10T05:34:13.495Z,100.00
2023-02-10T05:35:49.031Z,100.00
2023-02-10T05:37:24.419Z,100.00
2023-02-10T05:39:15.096Z,100.00
2023-02-10T05:40:49.251Z,100.00
2023-02-10T05:42:21.489Z,100.00
2023-02-10T05:43:56.738Z,100.00
2023-02-10T05:45:30.806Z,100.00
2023-02-10T05:47:04.654Z,100.00
2023-02-10T05:48:37.046Z,100.00
2023-02-10T05:50:11.070Z,100.00
2023-02-10T05:51:43.445Z,100.00
2023-02-10T05:53:15.952Z,100.00
2023-02-10T05:54:50.635Z,100.00
2023-02-10T05:56:35.527Z,100.00
2023-02-10T05:58:07.861Z,100.00
2023-02-10T05:59:40.230Z,100.00
2023-02-10T06:01:12.635Z,100.00
2023-02-10T06:02:44.877Z,100.00
2023-02-10T06:04:16.997Z,100.00
2023-02-10T06:05:49.671Z,100.00
2023-02-10T06:07:21.828Z,100.00
2023-02-10T06:08:53.945Z,100.00
2023-02-10T06:10:26.044Z,100.00
2023-02-10T06:11:58.366Z,100.00
2023-02-10T06:13:31.593Z,100.00
2023-02-10T06:15:03.922Z,100.00
2023-02-10T06:16:39.092Z,100.00
2023-02-10T06:18:11.479Z,100.00
2023-02-10T06:19:43.686Z,100.00
2023-02-10T06:21:16.912Z,100.00
2023-02-10T06:22:49.087Z,100.00
2023-02-10T06:24:21.180Z,100.00
2023-02-10T06:25:58.820Z,100.00
2023-02-10T06:27:31.015Z,100.00
2023-02-10T06:29:03.239Z,100.00
2023-02-10T06:30:37.756Z,100.00
2023-02-10T06:32:09.869Z,100.00
2023-02-10T06:33:42.098Z,100.00
2023-02-10T06:35:14.276Z,100.00
2023-02-10T06:36:46.418Z,100.00
2023-02-10T06:38:18.486Z,100.00
2023-02-10T06:39:50.723Z,100.00
2023-02-10T06:41:22.815Z,100.00
2023-02-10T06:42:54.952Z,100.00
2023-02-10T06:44:27.147Z,100.00
2023-02-10T06:46:02.014Z,100.00
2023-02-10T06:47:34.294Z,100.00
2023-02-10T06:49:06.343Z,100.00
2023-02-10T06:50:39.572Z,100.00
2023-02-10T06:52:16.842Z,100.00
2023-02-10T06:53:49.339Z,100.00
2023-02-10T06:55:21.571Z,100.00
2023-02-10T06:56:53.749Z,100.00
2023-02-10T06:58:25.897Z,100.00
2023-02-10T06:59:59.742Z,100.00
2023-02-10T07:01:32.207Z,100.00
2023-02-10T07:03:04.539Z,100.00
2023-02-10T07:04:36.816Z,100.00
2023-02-10T07:06:09.052Z,100.00
2023-02-10T07:07:41.224Z,100.00
2023-02-10T07:09:13.284Z,100.00
2023-02-10T07:10:46.213Z,100.00
2023-02-10T07:12:18.343Z,100.00
2023-02-10T07:13:50.474Z,100.00
2023-02-10T07:15:24.095Z,100.00
2023-02-10T07:16:56.256Z,100.00
2023-02-10T07:18:31.107Z,100.00
2023-02-10T07:20:03.987Z,100.00
2023-02-10T07:21:36.051Z,100.00
2023-02-10T07:23:08.311Z,100.00
2023-02-10T07:24:40.538Z,100.00
2023-02-10T07:26:13.340Z,100.00
2023-02-10T07:27:48.337Z,100.00
2023-02-10T07:29:20.545Z,100.00
2023-02-10T07:30:52.743Z,100.00
2023-02-10T07:32:25.128Z,100.00
2023-02-10T07:33:57.393Z,100.00
2023-02-10T07:35:29.736Z,100.00
2023-02-10T07:37:02.297Z,100.00
2023-02-10T07:38:34.815Z,100.00
2023-02-10T07:40:07.651Z,100.00
2023-02-10T07:41:40.458Z,100.00
2023-02-10T07:43:12.632Z,100.00
2023-02-10T07:44:50.312Z,100.00
2023-02-10T07:46:22.652Z,100.00
2023-02-10T07:47:54.952Z,100.00
2023-02-10T07:49:30.170Z,100.00
2023-02-10T07:51:02.230Z,100.00
2023-02-10T07:52:37.187Z,100.00
2023-02-10T07:54:09.753Z,100.00
2023-02-10T07:55:41.840Z,100.00
2023-02-10T07:57:13.849Z,100.00
2023-02-10T07:58:46.103Z,100.00
2023-02-10T08:00:18.506Z,100.00
2023-02-10T08:01:50.637Z,100.00
2023-02-10T08:03:22.891Z,100.00
2023-02-10T08:04:56.831Z,100.00
2023-02-10T08:06:29.034Z,100.00
2023-02-10T08:08:01.169Z,100.00
2023-02-10T08:09:33.484Z,100.00
2023-02-10T08:11:08.305Z,100.00
2023-02-10T08:12:40.627Z,100.00
2023-02-10T08:14:12.848Z,100.00
2023-02-10T08:15:45.086Z,100.00
2023-02-10T08:17:17.217Z,100.00
2023-02-10T08:18:49.493Z,100.00
2023-02-10T08:20:21.765Z,100.00
2023-02-10T08:21:56.381Z,100.00
2023-02-10T08:23:28.673Z,100.00
2023-02-10T08:25:00.802Z,100.00
2023-02-10T08:26:32.976Z,100.00
2023-02-10T08:28:05.393Z,100.00
2023-02-10T08:29:37.610Z,100.00
2023-02-10T08:31:10.690Z,100.00
2023-02-10T08:32:42.858Z,100.00
2023-02-10T08:34:17.891Z,100.00
2023-02-10T08:35:50.906Z,100.00
2023-02-10T08:37:23.227Z,100.00
2023-02-10T08:38:55.353Z,100.00
2023-02-10T08:40:27.555Z,100.00
2023-02-10T08:41:59.836Z,100.00
2023-02-10T08:43:32.036Z,100.00
2023-02-10T08:45:07.103Z,100.00
2023-02-10T08:46:39.314Z,100.00
2023-02-10T08:48:11.438Z,100.00
2023-02-10T08:49:44.279Z,100.00
2023-02-10T08:51:17.295Z,100.00
2023-02-10T08:52:49.450Z,100.00
2023-02-10T08:54:22.047Z,100.00
2023-02-10T08:56:20.348Z,100.00
2023-02-10T08:57:52.508Z,100.00
2023-02-10T08:59:24.762Z,100.00
2023-02-10T09:00:57.044Z,100.00
2023-02-10T09:02:29.395Z,100.00
2023-02-10T09:04:02.664Z,100.00
2023-02-10T09:05:37.018Z,100.00
2023-02-10T09:07:09.188Z,100.00
2023-02-10T09:08:42.963Z,100.00
2023-02-10T09:10:15.684Z,100.00
2023-02-10T09:11:47.822Z,100.00
2023-02-10T09:13:20.609Z,100.00
2023-02-10T09:14:52.622Z,100.00
2023-02-10T09:16:25.402Z,100.00
2023-02-10T09:17:57.538Z,100.00
2023-02-10T09:19:29.672Z,100.00
2023-02-10T09:21:02.465Z,100.00
2023-02-10T09:22:34.511Z,100.00
2023-02-10T09:24:06.952Z,100.00
2023-02-10T09:25:39.099Z,100.00
2023-02-10T09:27:11.298Z,100.00
2023-02-10T09:28:45.856Z,100.00
2023-02-10T09:30:18.248Z,100.00
2023-02-10T09:31:53.147Z,100.00
2023-02-10T09:33:25.376Z,100.00
2023-02-10T09:34:57.674Z,100.00
2023-02-10T09:36:29.748Z,100.00
2023-02-10T09:38:02.711Z,100.00
2023-02-10T09:39:34.689Z,100.00
2023-02-10T09:41:34.142Z,100.00
2023-02-10T09:43:30.908Z,100.00
2023-02-10T09:45:23.984Z,100.00
2023-02-10T09:47:12.448Z,100.00
2023-02-10T09:48:57.398Z,100.00
2023-02-10T09:50:40.832Z,100.00
2023-02-10T09:52:15.431Z,100.00
2023-02-10T09:53:47.682Z,100.00
2023-02-10T09:55:31.987Z,100.00
2023-02-10T09:57:12.189Z,100.00
2023-02-10T09:58:48.388Z,100.00
2023-02-10T10:00:36.237Z,100.00
2023-02-10T10:02:21.247Z,100.00
2023-02-10T10:04:09.127Z,100.00
2023-02-10T10:05:52.474Z,100.00
2023-02-10T10:07:37.485Z,100.00
2023-02-10T10:09:09.558Z,100.00
2023-02-10T10:10:44.360Z,100.00
2023-02-10T10:12:20.699Z,100.00
2023-02-10T10:13:54.320Z,100.00
2023-02-10T10:15:38.284Z,100.00
2023-02-10T10:17:31.832Z,100.00
2023-02-10T10:19:25.592Z,100.00
2023-02-10T10:21:01.179Z,100.00
2023-02-10T10:23:06.875Z,100.00
2023-02-10T10:25:20.392Z,100.00
2023-02-10T10:27:04.928Z,100.00
2023-02-10T10:28:46.744Z,100.00
2023-02-10T10:30:21.239Z,100.00
2023-02-10T10:32:35.673Z,100.00
2023-02-10T10:34:20.350Z,100.00
2023-02-10T10:35:53.702Z,100.00
2023-02-10T10:37:46.962Z,100.00
2023-02-10T10:39:32.456Z,100.00
2023-02-10T10:41:09.304Z,100.00
2023-02-10T10:42:49.508Z,100.00
2023-02-10T10:44:22.088Z,100.00
2023-02-10T10:45:58.248Z,100.00
2023-02-10T10:47:38.472Z,100.00
2023-02-10T10:49:13.559Z,100.00
2023-02-10T10:50:45.669Z,100.00
2023-02-10T10:52:33.055Z,100.00
2023-02-10T10:54:11.760Z,100.00
2023-02-10T10:55:52.469Z,100.00
2023-02-10T10:57:26.982Z,100.00
2023-02-10T10:58:59.516Z,100.00
2023-02-10T11:00:31.763Z,100.00
2023-02-10T11:02:33.170Z,100.00
2023-02-10T11:04:07.566Z,100.00
2023-02-10T11:05:39.894Z,100.00
2023-02-10T11:07:19.987Z,100.00
2023-02-10T11:08:59.681Z,100.00
2023-02-10T11:10:40.273Z,100.00
2023-02-10T11:12:23.272Z,100.00
2023-02-10T11:13:56.759Z,100.00
2023-02-10T11:15:35.706Z,100.00
2023-02-10T11:17:34.134Z,100.00
2023-02-10T11:19:06.445Z,100.00
2023-02-10T11:20:38.730Z,100.00
2023-02-10T11:22:20.142Z,100.00
2023-02-10T11:23:53.578Z,100.00
2023-02-10T11:25:36.443Z,100.00
2023-02-10T11:27:19.138Z,100.00
2023-02-10T11:28:52.131Z,100.00
2023-02-10T11:30:38.469Z,100.00
2023-02-10T11:32:21.713Z,100.00
2023-02-10T11:34:04.832Z,100.00
2023-02-10T11:35:37.092Z,100.00
2023-02-10T11:37:22.775Z,100.00
2023-02-10T11:39:01.158Z,100.00
2023-02-10T11:40:51.001Z,100.00
2023-02-10T11:42:34.559Z,100.00
2023-02-10T11:44:26.502Z,100.00
2023-02-10T11:46:04.725Z,100.00
2023-02-10T11:47:37.740Z,100.00
2023-02-10T11:49:13.898Z,100.00
2023-02-10T11:50:48.871Z,100.00
2023-02-10T11:52:23.635Z,100.00
2023-02-10T11:53:57.036Z,100.00
2023-02-10T11:55:39.329Z,100.00
2023-02-10T11:57:48.546Z,100.00
2023-02-10T11:59:26.196Z,100.00
2023-02-10T12:01:18.941Z,100.00
2023-02-10T12:03:03.070Z,100.00
2023-02-10T12:04:55.068Z,100.00
2023-02-10T12:06:45.335Z,100.00
2023-02-10T12:08:32.447Z,100.00
2023-02-10T12:10:29.152Z,100.00
2023-02-10T12:12:10.154Z,100.00
2023-02-10T12:14:00.656Z,100.00
2023-02-10T12:16:02.920Z,100.00
2023-02-10T12:17:48.382Z,100.00
2023-02-10T12:19:32.496Z,100.00
2023-02-10T12:21:38.893Z,100.00
2023-02-10T12:23:15.975Z,100.00
2023-02-10T12:25:09.471Z,100.00
2023-02-10T12:27:15.879Z,100.00
2023-02-10T12:29:09.358Z,100.00
2023-02-10T12:30:53.404Z,100.00
2023-02-10T12:32:42.326Z,100.00
2023-02-10T12:34:52.557Z,100.00
2023-02-10T12:36:52.463Z,100.00
2023-02-10T12:38:41.345Z,100.00
2023-02-10T12:40:25.587Z,100.00
2023-02-10T12:42:04.892Z,100.00
2023-02-10T12:44:00.540Z,100.00
2023-02-10T12:45:57.068Z,100.00
2023-02-10T12:47:50.220Z,100.00
2023-02-10T12:49:42.836Z,100.00
2023-02-10T12:51:47.805Z,100.00
2023-02-10T12:53:26.602Z,100.00
2023-02-10T12:55:14.629Z,100.00
2023-02-10T12:57:22.045Z,100.00
2023-02-10T12:59:00.507Z,100.00
2023-02-10T13:00:39.793Z,100.00
2023-02-10T13:02:19.275Z,100.00
2023-02-10T13:03:52.921Z,100.00
2023-02-10T13:05:50.716Z,100.00
2023-02-10T13:07:50.137Z,100.00
2023-02-10T13:09:52.358Z,100.00
2023-02-10T13:11:39.617Z,100.00
2023-02-10T13:13:25.677Z,100.00
2023-02-10T13:15:07.535Z,100.00
2023-02-10T13:16:39.973Z,100.00
2023-02-10T13:18:20.013Z,100.00
2023-02-10T13:19:59.626Z,100.00
2023-02-10T13:22:14.214Z,100.00
2023-02-10T13:23:53.005Z,100.00
2023-02-10T13:25:36.761Z,100.00
2023-02-10T13:27:21.495Z,100.00
2023-02-10T13:29:27.611Z,100.00
2023-02-10T13:31:10.171Z,100.00
2023-02-10T13:32:52.647Z,100.00
2023-02-10T13:34:30.441Z,98.40
2023-02-10T13:36:03.036Z,95.18
2023-02-10T13:37:40.518Z,94.48
2023-02-10T13:39:23.907Z,99.28
2023-02-10T13:41:14.884Z,100.00
2023-02-10T13:42:51.497Z,100.00
2023-02-10T13:44:33.906Z,100.00
2023-02-10T13:46:08.021Z,96.42
2023-02-10T13:47:50.770Z,98.56
2023-02-10T13:49:24.770Z,95.17
2023-02-10T13:51:08.389Z,97.70
2023-02-10T13:52:54.937Z,91.48
2023-02-10T13:54:29.980Z,92.53
2023-02-10T13:56:20.324Z,91.04
2023-02-10T13:58:01.234Z,94.20
2023-02-10T13:59:40.211Z,92.84
2023-02-10T14:01:53.632Z,91.66
2023-02-10T14:03:31.870Z,93.13
2023-02-10T14:05:04.098Z,95.37
2023-02-10T14:06:39.956Z,94.49
2023-02-10T14:08:16.521Z,91.40
2023-02-10T14:09:48.677Z,90.21
2023-02-10T14:11:20.656Z,90.17
2023-02-10T14:12:57.362Z,92.30
2023-02-10T14:14:33.217Z,92.91
2023-02-10T14:16:17.289Z,91.41
2023-02-10T14:20:19.853Z,92.77
2023-02-10T14:21:52.671Z,94.82
2023-02-10T14:23:25.523Z,100.00
2023-02-10T14:25:01.940Z,99.26
2023-02-10T14:26:36.248Z,100.00
2023-02-10T14:28:21.473Z,99.72
2023-02-10T14:29:57.593Z,94.30
2023-02-10T14:31:37.587Z,95.98
2023-02-10T14:33:28.922Z,97.01
2023-02-10T14:35:06.198Z,97.81
2023-02-10T14:36:40.794Z,97.67
2023-02-10T14:38:42.911Z,98.66
2023-02-10T14:40:18.757Z,100.00
2023-02-10T14:41:51.959Z,99.21
2023-02-10T14:43:29.047Z,99.54
2023-02-10T14:45:04.981Z,98.62
2023-02-10T14:46:37.554Z,100.00
2023-02-10T14:48:09.774Z,100.00
2023-02-10T14:49:41.881Z,100.00
2023-02-10T14:51:22.881Z,100.00
2023-02-10T14:52:55.180Z,100.00
2023-02-10T14:54:27.876Z,100.00
2023-02-10T14:56:01.874Z,100.00
2023-02-10T14:57:34.021Z,100.00
2023-02-10T14:59:06.227Z,100.00
2023-02-10T15:00:41.433Z,100.00
2023-02-10T15:02:21.683Z,100.00
2023-02-10T15:03:58.903Z,100.00
2023-02-10T15:05:39.058Z,100.00
2023-02-10T15:07:16.621Z,100.00
2023-02-10T15:09:02.176Z,100.00
2023-02-10T15:10:54.468Z,100.00
2023-02-10T15:12:29.988Z,100.00
2023-02-10T15:14:02.313Z,100.00
2023-02-10T15:15:36.854Z,100.00
2023-02-10T15:17:16.255Z,100.00
2023-02-10T15:18:49.284Z,100.00
2023-02-10T15:20:29.948Z,100.00
2023-02-10T15:22:02.305Z,100.00
2023-02-10T15:23:34.505Z,100.00
2023-02-10T15:25:34.328Z,100.00
2023-02-10T15:27:24.528Z,100.00
2023-02-10T15:29:12.670Z,100.00
2023-02-10T15:31:26.863Z,100.00
2023-02-10T15:33:00.566Z,100.00
2023-02-10T15:34:33.377Z,100.00
2023-02-10T15:36:23.110Z,100.00
2023-02-10T15:37:59.769Z,100.00
2023-02-10T15:39:40.389Z,100.00
2023-02-10T15:41:53.835Z,100.00
2023-02-10T15:43:30.293Z,100.00
2023-02-10T15:45:13.215Z,100.00
2023-02-10T15:46:53.274Z,100.00
2023-02-10T15:48:38.255Z,100.00
2023-02-10T15:50:24.228Z,100.00
2023-02-10T15:51:56.663Z,100.00
2023-02-10T15:53:29.064Z,100.00
2023-02-10T15:55:04.651Z,100.00
2023-02-10T15:56:37.118Z,100.00
2023-02-10T15:58:12.096Z,100.00
2023-02-10T15:59:45.997Z,100.00
2023-02-10T16:01:18.505Z,100.00
2023-02-10T16:02:50.900Z,100.00
2023-02-10T16:04:23.345Z,100.00
2023-02-10T16:06:02.901Z,100.00
2023-02-10T16:07:35.063Z,100.00
2023-02-10T16:09:07.134Z,100.00
2023-02-10T16:10:39.536Z,100.00
2023-02-10T16:12:11.645Z,100.00
2023-02-10T16:13:43.812Z,100.00
2023-02-10T16:15:17.605Z,100.00
2023-02-10T16:16:55.954Z,100.00
2023-02-10T16:18:29.525Z,100.00
2023-02-10T16:20:01.586Z,100.00
2023-02-10T16:21:57.689Z,100.00
2023-02-10T16:23:31.478Z,100.00
2023-02-10T16:25:04.592Z,100.00
2023-02-10T16:26:36.764Z,100.00
2023-02-10T16:28:11.255Z,100.00
2023-02-10T16:29:44.678Z,100.00
2023-02-10T16:31:19.517Z,100.00
2023-02-10T16:32:51.795Z,100.00
2023-02-10T16:34:24.341Z,100.00
2023-02-10T16:35:56.956Z,100.00
2023-02-10T16:37:30.839Z,100.00
2023-02-10T16:39:03.425Z,100.00
2023-02-10T16:40:38.158Z,100.00
2023-02-10T16:42:12.281Z,100.00
2023-02-10T16:43:44.606Z,100.00
2023-02-10T16:45:17.107Z,100.00
2023-02-10T16:46:49.971Z,100.00
2023-02-10T16:48:22.042Z,100.00
2023-02-10T16:49:58.408Z,100.00
2023-02-10T16:51:30.577Z,100.00
2023-02-10T16:53:02.823Z,100.00
2023-02-10T16:54:35.179Z,100.00
2023-02-10T16:56:15.594Z,100.00
2023-02-10T16:57:51.079Z,100.00
2023-02-10T16:59:23.357Z,100.00
2023-02-10T17:00:56.963Z,100.00
2023-02-10T17:02:29.592Z,100.00
2023-02-10T17:04:02.553Z,100.00
2023-02-10T17:05:35.376Z,100.00
2023-02-10T17:07:07.780Z,100.00
2023-02-10T17:08:40.094Z,100.00
2023-02-10T17:10:24.445Z,100.00
2023-02-10T17:11:57.070Z,100.00
2023-02-10T17:13:29.380Z,100.00
2023-02-10T17:15:01.795Z,100.00
2023-02-10T17:16:36.263Z,100.00
2023-02-10T17:18:08.654Z,100.00
2023-02-10T17:19:41.012Z,100.00
2023-02-10T17:21:45.339Z,100.00
2023-02-10T17:23:17.505Z,100.00
2023-02-10T17:24:50.498Z,100.00
2023-02-10T17:26:22.988Z,100.00
2023-02-10T17:27:55.297Z,100.00
2023-02-10T17:29:27.494Z,100.00
2023-02-10T17:31:08.851Z,100.00
2023-02-10T17:32:51.668Z,100.00
2023-02-10T17:34:24.657Z,100.00
2023-02-10T17:36:00.017Z,100.00
2023-02-10T17:37:36.100Z,100.00
2023-02-10T17:39:31.719Z,100.00
2023-02-10T17:41:08.791Z,100.00
2023-02-10T17:42:41.081Z,100.00
2023-02-10T17:44:34.468Z,100.00
2023-02-10T17:46:06.583Z,100.00
2023-02-10T17:47:56.405Z,100.00
2023-02-10T17:49:30.974Z,100.00
2023-02-10T17:51:44.640Z,100.00
2023-02-10T17:53:16.940Z,100.00
2023-02-10T17:54:55.411Z,100.00
2023-02-10T17:56:27.541Z,100.00
2023-02-10T17:58:23.999Z,100.00
2023-02-10T17:59:56.253Z,100.00
2023-02-10T18:01:29.550Z,100.00
2023-02-10T18:03:01.679Z,100.00
2023-02-10T18:04:33.835Z,100.00
2023-02-10T18:06:15.209Z,100.00
2023-02-10T18:07:47.340Z,100.00
2023-02-10T18:09:19.643Z,100.00
2023-02-10T18:10:51.922Z,100.00
2023-02-10T18:12:24.072Z,100.00
2023-02-10T18:13:56.661Z,100.00
2023-02-10T18:15:28.810Z,100.00
2023-02-10T18:17:01.896Z,100.00
2023-02-10T18:18:34.255Z,100.00
2023-02-10T18:20:06.696Z,100.00
2023-02-10T18:21:38.914Z,100.00
2023-02-10T18:23:10.969Z,100.00
2023-02-10T18:24:43.205Z,100.00
2023-02-10T18:26:15.475Z,100.00
2023-02-10T18:27:47.584Z,100.00
2023-02-10T18:29:20.990Z,100.00
2023-02-10T18:30:53.139Z,100.00
2023-02-10T18:32:25.353Z,100.00
2023-02-10T18:33:57.509Z,100.00
2023-02-10T18:35:42.671Z,100.00
2023-02-10T18:37:14.937Z,100.00
2023-02-10T18:38:48.347Z,100.00
2023-02-10T18:40:20.701Z,100.00
2023-02-10T18:41:53.054Z,100.00
2023-02-10T18:43:25.120Z,100.00
2023-02-10T18:44:57.325Z,100.00
2023-02-10T18:46:29.752Z,100.00
2023-02-10T18:48:04.173Z,100.00
2023-02-10T18:49:36.416Z,100.00
2023-02-10T18:51:09.655Z,100.00
2023-02-10T18:52:41.984Z,100.00
2023-02-10T18:54:15.051Z,100.00
2023-02-10T18:55:48.884Z,100.00
2023-02-10T18:57:25.002Z,100.00
2023-02-10T18:58:57.277Z,100.00
2023-02-10T19:00:30.650Z,100.00
2023-02-10T19:02:02.827Z,100.00
2023-02-10T19:03:35.988Z,100.00
2023-02-10T19:05:08.626Z,100.00
2023-02-10T19:06:40.804Z,100.00
2023-02-10T19:08:12.878Z,100.00
2023-02-10T19:09:45.991Z,100.00
2023-02-10T19:11:19.392Z,100.00
2023-02-10T19:12:52.627Z,100.00
2023-02-10T19:14:24.903Z,100.00
2023-02-10T19:15:57.737Z,100.00
2023-02-10T19:17:29.876Z,100.00
2023-02-10T19:19:04.618Z,100.00
2023-02-10T19:20:37.779Z,100.00
2023-02-10T19:22:10.056Z,100.00
2023-02-10T19:23:43.829Z,100.00
2023-02-10T19:25:20.495Z,100.00
2023-02-10T19:26:52.571Z,100.00
2023-02-10T19:28:24.770Z,100.00
2023-02-10T19:29:56.838Z,100.00
2023-02-10T19:31:29.089Z,100.00
2023-02-10T19:33:01.255Z,100.00
2023-02-10T19:34:33.516Z,100.00
2023-02-10T19:36:10.104Z,100.00
2023-02-10T19:37:42.518Z,100.00
2023-02-10T19:39:17.365Z,100.00
2023-02-10T19:40:49.602Z,100.00
2023-02-10T19:42:21.992Z,100.00
2023-02-10T19:43:55.362Z,100.00
2023-02-10T19:45:27.737Z,100.00
2023-02-10T19:46:59.884Z,100.00
2023-02-10T19:48:33.822Z,100.00
2023-02-10T19:50:06.353Z,100.00
2023-02-10T19:51:39.290Z,100.00
2023-02-10T19:53:12.312Z,100.00
2023-02-10T19:54:44.699Z,100.00
2023-02-10T19:56:17.801Z,100.00
2023-02-10T19:57:50.265Z,100.00
2023-02-10T19:59:22.950Z,100.00
2023-02-10T20:01:02.804Z,100.00
2023-02-10T20:02:37.458Z,100.00
2023-02-10T20:04:11.151Z,100.00
2023-02-10T20:05:43.548Z,100.00
2023-02-10T20:07:16.368Z,100.00
2023-02-10T20:08:51.765Z,100.00
2023-02-10T20:10:24.041Z,100.00
2023-02-10T20:11:59.937Z,100.00
2023-02-10T20:13:34.909Z,100.00